createdAt,value
2023-06-01T00:00:26.119Z,59.77
2023-06-01T00:02:55.380Z,60.11
2023-06-01T00:05:23.583Z,61.66
2023-06-01T00:07:52.007Z,63.22
2023-06-01T00:10:19.857Z,61.60
2023-06-01T00:12:47.722Z,62.55
2023-06-01T00:15:15.601Z,62.58
2023-06-01T00:17:43.544Z,62.16
2023-06-01T00:20:11.703Z,62.33
2023-06-01T00:22:40.227Z,63.93
2023-06-01T00:25:09.569Z,62.97
2023-06-01T00:27:37.846Z,62.64
2023-06-01T00:30:06.403Z,63.87
2023-06-01T00:32:34.433Z,63.43
2023-06-01T00:35:02.350Z,63.53
2023-06-01T00:37:30.273Z,64.19
2023-06-01T00:39:58.015Z,65.30
2023-06-01T00:42:26.166Z,64.92
2023-06-01T00:44:54.997Z,63.56
2023-06-01T00:47:23.025Z,63.50
2023-06-01T00:49:51.238Z,64.61
2023-06-01T00:52:19.560Z,63.87
2023-06-01T00:54:47.379Z,63.63
2023-06-01T00:57:16.045Z,64.06
2023-06-01T00:59:43.965Z,63.14
2023-06-01T01:02:16.682Z,64.40
2023-06-01T01:04:44.779Z,63.40
2023-06-01T01:07:26.357Z,65.57
2023-06-01T01:10:02.274Z,64.17
2023-06-01T01:12:36.275Z,64.14
2023-06-01T01:15:33.661Z,66.49
2023-06-01T01:18:06.274Z,66.30
2023-06-01T01:20:42.240Z,66.56
2023-06-01T01:23:50.850Z,66.89
2023-06-01T01:26:41.849Z,68.03
2023-06-01T01:29:16.145Z,68.16
2023-06-01T01:31:46.911Z,68.15
2023-06-01T01:34:14.930Z,68.19
2023-06-01T01:36:44.077Z,68.40
2023-06-01T01:39:12.291Z,67.98
2023-06-01T01:41:40.235Z,69.33
2023-06-01T01:44:08.423Z,68.20
2023-06-01T01:47:02.857Z,68.99
2023-06-01T01:49:54.857Z,69.68
2023-06-01T01:52:44.954Z,70.04
2023-06-01T01:55:16.848Z,69.95
2023-06-01T01:57:45.620Z,71.15
2023-06-01T02:00:14.037Z,70.86
2023-06-01T02:02:41.981Z,70.77
2023-06-01T02:05:10.043Z,71.13
2023-06-01T02:07:38.283Z,71.58
2023-06-01T02:10:07.931Z,70.80
2023-06-01T02:12:35.863Z,70.30
2023-06-01T02:15:04.043Z,71.26
2023-06-01T02:17:32.023Z,70.91
2023-06-01T02:20:00.155Z,71.43
2023-06-01T02:22:28.012Z,72.10
2023-06-01T02:24:56.449Z,71.47
2023-06-01T02:27:25.177Z,71.01
2023-06-01T02:29:53.006Z,72.56
2023-06-01T02:32:20.819Z,72.78
2023-06-01T02:34:48.659Z,73.15
2023-06-01T02:37:16.542Z,73.30
2023-06-01T02:39:44.964Z,72.87
2023-06-01T02:42:13.519Z,71.96
2023-06-01T02:44:41.384Z,71.57
2023-06-01T02:47:09.341Z,72.79
2023-06-01T02:49:39.012Z,72.70
2023-06-01T02:52:07.325Z,72.06
2023-06-01T02:54:36.413Z,71.95
2023-06-01T02:57:19.853Z,71.48
2023-06-01T02:59:52.171Z,71.21
2023-06-01T03:02:20.181Z,72.21
2023-06-01T03:04:49.529Z,71.23
2023-06-01T03:07:17.679Z,71.96
2023-06-01T03:09:54.225Z,71.31
2023-06-01T03:12:40.966Z,73.14
2023-06-01T03:15:09.155Z,72.74
2023-06-01T03:17:37.327Z,72.91
2023-06-01T03:20:15.786Z,71.95
2023-06-01T03:22:45.792Z,72.39
2023-06-01T03:25:14.037Z,72.08
2023-06-01T03:27:43.139Z,72.27
2023-06-01T03:30:11.868Z,72.60
2023-06-01T03:32:43.659Z,73.25
2023-06-01T03:35:13.393Z,73.58
2023-06-01T03:37:44.641Z,73.51
2023-06-01T03:40:13.958Z,74.68
2023-06-01T03:42:43.546Z,74.84
2023-06-01T03:45:12.462Z,75.79
2023-06-01T03:47:41.245Z,75.64
2023-06-01T03:50:10.494Z,76.12
2023-06-01T03:52:39.678Z,76.87
2023-06-01T03:55:11.962Z,77.08
2023-06-01T03:58:04.154Z,76.69
2023-06-01T04:00:32.565Z,76.50
2023-06-01T04:03:05.431Z,76.22
2023-06-01T04:05:33.487Z,77.03
2023-06-01T04:08:02.117Z,76.40
2023-06-01T04:10:30.120Z,76.59
2023-06-01T04:12:58.146Z,76.64
2023-06-01T04:15:29.583Z,77.17
2023-06-01T04:17:58.955Z,76.88
2023-06-01T04:20:27.524Z,77.50
2023-06-01T04:22:55.742Z,77.32
2023-06-01T04:25:24.614Z,75.78
2023-06-01T04:27:55.965Z,74.51
2023-06-01T04:30:27.133Z,72.87
2023-06-01T04:32:56.123Z,72.59
2023-06-01T04:35:24.550Z,71.58
2023-06-01T04:37:52.550Z,70.10
2023-06-01T04:40:20.870Z,69.73
2023-06-01T04:42:52.898Z,69.59
2023-06-01T04:45:21.815Z,68.33
2023-06-01T04:47:49.762Z,68.40
2023-06-01T04:50:31.188Z,68.42
2023-06-01T04:53:00.206Z,67.10
2023-06-01T04:55:28.590Z,66.56
2023-06-01T04:57:59.104Z,67.06
2023-06-01T05:00:27.078Z,66.54
2023-06-01T05:02:54.880Z,66.75
2023-06-01T05:05:22.914Z,67.59
2023-06-01T05:07:50.965Z,67.00
2023-06-01T05:10:19.043Z,67.38
2023-06-01T05:12:49.320Z,66.47
2023-06-01T05:15:19.211Z,65.87
2023-06-01T05:17:50.885Z,65.08
2023-06-01T05:20:21.471Z,63.77
2023-06-01T05:22:58.564Z,63.13
2023-06-01T05:25:26.775Z,62.40
2023-06-01T05:27:54.758Z,62.53
2023-06-01T05:30:23.374Z,61.57
2023-06-01T05:32:52.784Z,61.27
2023-06-01T05:35:22.486Z,60.91
2023-06-01T05:37:51.797Z,60.74
2023-06-01T05:40:20.770Z,61.59
2023-06-01T05:42:48.727Z,59.98
2023-06-01T05:45:16.657Z,59.88
2023-06-01T05:47:44.878Z,59.37
2023-06-01T05:50:13.054Z,60.07
2023-06-01T05:52:43.872Z,58.52
2023-06-01T05:55:12.127Z,59.82
2023-06-01T05:57:41.246Z,59.58
2023-06-01T06:00:12.217Z,59.46
2023-06-01T06:02:45.079Z,59.91
2023-06-01T06:05:13.236Z,58.48
2023-06-01T06:07:41.222Z,58.77
2023-06-01T06:10:09.586Z,58.33
2023-06-01T06:12:37.537Z,59.21
2023-06-01T06:15:06.312Z,57.14
2023-06-01T06:17:34.242Z,55.61
2023-06-01T06:20:02.170Z,54.67
2023-06-01T06:22:30.121Z,54.28
2023-06-01T06:24:57.955Z,53.69
2023-06-01T06:27:25.951Z,53.80
2023-06-01T06:29:53.873Z,53.00
2023-06-01T06:32:22.069Z,52.46
2023-06-01T06:34:50.208Z,51.23
2023-06-01T06:37:18.138Z,49.05
2023-06-01T06:39:46.386Z,49.94
2023-06-01T06:42:14.376Z,50.12
2023-06-01T06:44:42.318Z,50.57
2023-06-01T06:47:10.274Z,49.44
2023-06-01T06:49:38.212Z,49.68
2023-06-01T06:52:06.560Z,48.41
2023-06-01T06:54:34.446Z,48.76
2023-06-01T06:57:02.367Z,49.05
2023-06-01T06:59:30.315Z,48.92
2023-06-01T07:01:58.206Z,48.11
2023-06-01T07:04:26.076Z,47.98
2023-06-01T07:06:54.586Z,45.80
2023-06-01T07:09:22.663Z,46.00
2023-06-01T07:11:50.784Z,45.52
2023-06-01T07:14:18.880Z,45.90
2023-06-01T07:16:46.844Z,46.62
2023-06-01T07:19:14.778Z,45.75
2023-06-01T07:21:42.628Z,45.86
2023-06-01T07:24:10.501Z,44.99
2023-06-01T07:26:38.498Z,44.02
2023-06-01T07:29:07.577Z,44.88
2023-06-01T07:31:36.638Z,44.45
2023-06-01T07:34:04.714Z,44.00
2023-06-01T07:36:36.429Z,44.07
2023-06-01T07:39:07.642Z,45.19
2023-06-01T07:41:35.771Z,43.51
2023-06-01T07:44:04.092Z,44.19
2023-06-01T07:46:32.021Z,44.08
2023-06-01T07:49:00.154Z,43.47
2023-06-01T07:51:28.043Z,42.72
2023-06-01T07:53:59.048Z,42.84
2023-06-01T07:56:27.965Z,43.26
2023-06-01T07:58:55.958Z,42.14
2023-06-01T08:01:24.002Z,42.01
2023-06-01T08:03:52.776Z,42.64
2023-06-01T08:06:24.818Z,41.96
2023-06-01T08:08:52.742Z,41.91
2023-06-01T08:11:22.985Z,42.51
2023-06-01T08:13:51.951Z,42.95
2023-06-01T08:16:19.908Z,41.06
2023-06-01T08:18:48.230Z,40.85
2023-06-01T08:21:16.075Z,41.98
2023-06-01T08:23:44.521Z,42.29
2023-06-01T08:26:12.471Z,43.33
2023-06-01T08:28:40.446Z,43.12
2023-06-01T08:31:08.354Z,42.93
2023-06-01T08:33:36.621Z,43.99
2023-06-01T08:36:04.895Z,42.36
2023-06-01T08:38:33.852Z,42.81
2023-06-01T08:41:09.536Z,42.58
2023-06-01T08:43:40.375Z,42.02
2023-06-01T08:46:08.261Z,42.81
2023-06-01T08:48:36.537Z,41.78
2023-06-01T08:51:04.637Z,41.81
2023-06-01T08:53:34.461Z,40.85
2023-06-01T08:56:04.670Z,40.65
2023-06-01T08:58:32.872Z,39.39
2023-06-01T09:01:00.759Z,39.40
2023-06-01T09:03:28.732Z,40.05
2023-06-01T09:05:56.747Z,39.62
2023-06-01T09:08:28.566Z,39.68
2023-06-01T09:10:56.506Z,39.34
2023-06-01T09:13:43.368Z,38.73
2023-06-01T09:16:11.494Z,37.67
2023-06-01T09:18:52.887Z,38.70
2023-06-01T09:21:21.168Z,38.78
2023-06-01T09:23:49.202Z,38.32
2023-06-01T09:26:19.137Z,39.14
2023-06-01T09:28:57.077Z,38.85
2023-06-01T09:31:47.755Z,39.15
2023-06-01T09:34:19.795Z,38.14
2023-06-01T09:36:52.831Z,37.84
2023-06-01T09:39:24.097Z,37.53
2023-06-01T09:42:07.988Z,38.15
2023-06-01T09:44:38.851Z,36.48
2023-06-01T09:47:12.408Z,36.16
2023-06-01T09:49:44.887Z,36.16
2023-06-01T09:52:13.809Z,36.85
2023-06-01T09:54:44.778Z,36.44
2023-06-01T09:57:13.964Z,37.07
2023-06-01T09:59:46.687Z,37.50
2023-06-01T10:02:22.985Z,37.65
2023-06-01T10:04:54.074Z,37.36
2023-06-01T10:07:24.355Z,37.90
2023-06-01T10:09:56.196Z,36.70
2023-06-01T10:12:25.089Z,38.14
2023-06-01T10:14:54.253Z,37.89
2023-06-01T10:17:22.069Z,38.45
2023-06-01T10:19:50.710Z,39.79
2023-06-01T10:22:18.825Z,38.83
2023-06-01T10:24:46.808Z,39.37
2023-06-01T10:27:26.457Z,39.14
2023-06-01T10:29:55.600Z,39.47
2023-06-01T10:32:38.856Z,38.88
2023-06-01T10:35:11.675Z,38.46
2023-06-01T10:37:39.701Z,38.19
2023-06-01T10:40:23.484Z,38.21
2023-06-01T10:42:51.761Z,38.37
2023-06-01T10:45:42.869Z,38.59
2023-06-01T10:48:13.050Z,38.16
2023-06-01T10:50:42.734Z,37.63
2023-06-01T10:53:31.534Z,38.18
2023-06-01T10:56:25.072Z,40.12
2023-06-01T10:59:17.286Z,38.74
2023-06-01T11:01:48.463Z,38.89
2023-06-01T11:04:17.080Z,37.39
2023-06-01T11:06:47.441Z,37.93
2023-06-01T11:09:17.452Z,36.17
2023-06-01T11:11:56.461Z,37.15
2023-06-01T11:14:27.137Z,36.42
2023-06-01T11:17:00.814Z,37.06
2023-06-01T11:19:29.089Z,37.25
2023-06-01T11:22:04.957Z,35.47
2023-06-01T11:24:37.758Z,35.08
2023-06-01T11:27:10.490Z,35.92
2023-06-01T11:29:38.749Z,34.57
2023-06-01T11:32:07.671Z,34.89
2023-06-01T11:34:42.443Z,34.64
2023-06-01T11:37:18.972Z,34.75
2023-06-01T11:39:48.435Z,34.78
2023-06-01T11:42:18.550Z,34.74
2023-06-01T11:44:57.529Z,33.38
2023-06-01T11:47:31.160Z,33.36
2023-06-01T11:49:59.418Z,33.76
2023-06-01T11:52:28.274Z,33.83
2023-06-01T11:55:03.797Z,32.25
2023-06-01T11:57:31.850Z,33.91
2023-06-01T12:00:00.608Z,34.44
2023-06-01T12:02:31.243Z,34.67
2023-06-01T12:05:03.381Z,35.61
2023-06-01T12:07:32.059Z,35.75
2023-06-01T12:10:02.457Z,34.69
2023-06-01T12:12:30.563Z,33.54
2023-06-01T12:14:58.640Z,34.07
2023-06-01T12:17:27.233Z,34.41
2023-06-01T12:19:55.175Z,34.80
2023-06-01T12:22:31.547Z,33.49
2023-06-01T12:25:06.575Z,34.39
2023-06-01T12:27:39.259Z,32.27
2023-06-01T12:30:21.919Z,32.79
2023-06-01T12:32:51.278Z,33.09
2023-06-01T12:35:19.329Z,32.23
2023-06-01T12:38:12.650Z,32.62
2023-06-01T12:40:41.721Z,31.98
2023-06-01T12:43:21.048Z,32.61
2023-06-01T12:45:49.132Z,31.54
2023-06-01T12:48:37.813Z,32.58
2023-06-01T12:51:06.743Z,32.55
2023-06-01T12:53:35.019Z,31.95
2023-06-01T12:56:03.350Z,32.86
2023-06-01T12:58:31.432Z,32.23
2023-06-01T13:00:59.345Z,32.36
2023-06-01T13:03:27.428Z,30.59
2023-06-01T13:05:55.450Z,32.47
2023-06-01T13:08:26.656Z,31.74
2023-06-01T13:10:55.577Z,31.70
2023-06-01T13:13:24.966Z,32.06
2023-06-01T13:15:55.122Z,31.49
2023-06-01T13:18:23.175Z,31.56
2023-06-01T13:20:51.964Z,31.20
2023-06-01T13:23:19.901Z,30.63
2023-06-01T13:25:47.721Z,32.46
2023-06-01T13:28:16.656Z,31.79
2023-06-01T13:30:45.254Z,31.77
2023-06-01T13:33:13.696Z,31.40
2023-06-01T13:35:41.637Z,31.89
2023-06-01T13:38:09.572Z,31.29
2023-06-01T13:40:37.979Z,29.70
2023-06-01T13:43:05.945Z,31.49
2023-06-01T13:45:33.817Z,31.63
2023-06-01T13:48:01.969Z,30.56
2023-06-01T13:50:29.932Z,30.92
2023-06-01T13:52:57.962Z,30.68
2023-06-01T13:55:26.707Z,32.32
2023-06-01T13:57:54.589Z,31.87
2023-06-01T14:00:23.179Z,32.82
2023-06-01T14:02:51.402Z,33.51
2023-06-01T14:05:25.937Z,33.28
2023-06-01T14:07:57.069Z,33.44
2023-06-01T14:10:25.117Z,34.61
2023-06-01T14:12:53.060Z,33.41
2023-06-01T14:15:21.096Z,32.51
2023-06-01T14:17:50.058Z,33.04
2023-06-01T14:20:18.094Z,32.10
2023-06-01T14:22:46.843Z,30.56
2023-06-01T14:25:14.884Z,31.78
2023-06-01T14:27:42.818Z,32.17
2023-06-01T14:30:11.320Z,30.99
2023-06-01T14:32:39.245Z,31.70
2023-06-01T14:35:10.071Z,31.89
2023-06-01T14:37:48.878Z,31.67
2023-06-01T14:40:18.373Z,33.32
2023-06-01T14:42:47.133Z,33.50
2023-06-01T14:45:15.164Z,33.99
2023-06-01T14:47:43.799Z,34.05
2023-06-01T14:50:12.054Z,34.03
2023-06-01T14:52:40.313Z,34.03
2023-06-01T14:55:08.665Z,32.53
2023-06-01T14:57:36.535Z,33.46
2023-06-01T15:00:06.304Z,33.62
2023-06-01T15:02:34.803Z,32.31
2023-06-01T15:05:03.139Z,32.37
2023-06-01T15:07:32.039Z,33.77
2023-06-01T15:09:59.972Z,33.17
2023-06-01T15:12:27.900Z,34.14
2023-06-01T15:14:55.786Z,33.25
2023-06-01T15:17:24.135Z,34.50
2023-06-01T15:19:52.658Z,32.56
2023-06-01T15:22:20.555Z,32.25
2023-06-01T15:24:48.400Z,33.57
2023-06-01T15:27:16.542Z,34.58
2023-06-01T15:29:44.468Z,34.91
2023-06-01T15:32:12.534Z,35.49
2023-06-01T15:34:42.810Z,35.16
2023-06-01T15:37:13.208Z,36.17
2023-06-01T15:39:41.644Z,36.44
2023-06-01T15:42:11.274Z,36.64
2023-06-01T15:44:43.562Z,36.97
2023-06-01T15:47:13.017Z,36.35
2023-06-01T15:49:41.584Z,36.54
2023-06-01T15:52:10.132Z,37.05
2023-06-01T15:54:38.062Z,36.89
2023-06-01T15:57:06.666Z,37.02
2023-06-01T15:59:34.665Z,36.56
2023-06-01T16:02:03.064Z,37.29
2023-06-01T16:04:31.561Z,37.08
2023-06-01T16:06:59.476Z,36.76
2023-06-01T16:09:27.377Z,36.57
2023-06-01T16:11:55.601Z,36.68
2023-06-01T16:14:23.731Z,37.25
2023-06-01T16:16:55.018Z,36.85
2023-06-01T16:19:23.314Z,37.18
2023-06-01T16:21:51.415Z,36.73
2023-06-01T16:24:19.408Z,37.09
2023-06-01T16:26:47.258Z,36.90
2023-06-01T16:29:15.470Z,37.88
2023-06-01T16:31:43.647Z,37.60
2023-06-01T16:34:11.844Z,38.53
2023-06-01T16:36:40.073Z,37.84
2023-06-01T16:39:08.511Z,37.53
2023-06-01T16:41:36.559Z,37.63
2023-06-01T16:44:04.407Z,37.38
2023-06-01T16:46:32.360Z,37.71
2023-06-01T16:49:00.590Z,37.89
2023-06-01T16:51:29.681Z,38.30
2023-06-01T16:53:59.250Z,39.18
2023-06-01T16:56:27.654Z,39.49
2023-06-01T16:58:55.558Z,37.57
2023-06-01T17:01:23.641Z,38.35
2023-06-01T17:03:52.055Z,38.64
2023-06-01T17:06:22.010Z,37.70
2023-06-01T17:08:49.937Z,38.71
2023-06-01T17:11:17.958Z,38.39
2023-06-01T17:13:46.972Z,37.61
2023-06-01T17:16:15.200Z,38.61
2023-06-01T17:18:43.279Z,38.79
2023-06-01T17:21:11.316Z,37.68
2023-06-01T17:23:39.153Z,38.38
2023-06-01T17:26:08.077Z,38.65
2023-06-01T17:28:37.824Z,39.06
2023-06-01T17:31:06.127Z,39.25
2023-06-01T17:33:34.309Z,38.86
2023-06-01T17:36:02.537Z,39.14
2023-06-01T17:38:31.216Z,38.80
2023-06-01T17:40:59.216Z,39.33
2023-06-01T17:43:27.615Z,39.29
2023-06-01T17:45:55.941Z,40.04
2023-06-01T17:48:24.862Z,39.54
2023-06-01T17:50:54.344Z,39.91
2023-06-01T17:53:40.081Z,39.25
2023-06-01T17:56:09.380Z,39.87
2023-06-01T17:58:37.280Z,39.19
2023-06-01T18:01:05.224Z,39.46
2023-06-01T18:03:33.227Z,41.01
2023-06-01T18:06:01.512Z,39.66
2023-06-01T18:08:29.651Z,39.37
2023-06-01T18:10:57.724Z,40.58
2023-06-01T18:13:25.788Z,40.42
2023-06-01T18:15:53.656Z,39.86
2023-06-01T18:18:21.700Z,39.82
2023-06-01T18:20:49.566Z,40.57
2023-06-01T18:23:17.803Z,40.42
2023-06-01T18:25:45.657Z,40.23
2023-06-01T18:28:13.601Z,41.40
2023-06-01T18:30:41.700Z,40.50
2023-06-01T18:33:09.597Z,40.49
2023-06-01T18:35:37.432Z,40.97
2023-06-01T18:38:05.257Z,41.18
2023-06-01T18:40:33.184Z,41.70
2023-06-01T18:43:01.052Z,42.22
2023-06-01T18:45:28.963Z,40.74
2023-06-01T18:47:56.943Z,41.09
2023-06-01T18:50:25.938Z,41.42
2023-06-01T18:52:53.906Z,42.58
2023-06-01T18:55:21.968Z,42.38
2023-06-01T18:57:49.958Z,43.07
2023-06-01T19:00:18.174Z,42.98
2023-06-01T19:02:48.014Z,42.90
2023-06-01T19:05:23.683Z,42.94
2023-06-01T19:07:52.090Z,42.68
2023-06-01T19:10:59.489Z,42.96
2023-06-01T19:13:47.643Z,43.07
2023-06-01T19:16:24.876Z,43.39
2023-06-01T19:18:55.809Z,42.82
2023-06-01T19:21:31.892Z,43.70
2023-06-01T19:24:13.616Z,43.97
2023-06-01T19:26:43.042Z,44.43
2023-06-01T19:29:13.014Z,44.34
2023-06-01T19:31:46.125Z,43.51
2023-06-01T19:34:14.864Z,43.14
2023-06-01T19:36:42.865Z,43.68
2023-06-01T19:39:16.832Z,43.32
2023-06-01T19:41:44.992Z,44.15
2023-06-01T19:44:21.189Z,44.56
2023-06-01T19:46:49.431Z,44.92
2023-06-01T19:49:20.475Z,46.49
2023-06-01T19:51:48.550Z,47.37
2023-06-01T19:54:25.366Z,47.75
2023-06-01T19:56:58.913Z,49.39
2023-06-01T19:59:28.231Z,48.89
2023-06-01T20:01:58.592Z,49.00
2023-06-01T20:04:26.709Z,48.52
2023-06-01T20:06:58.500Z,49.65
2023-06-01T20:09:26.683Z,49.60
2023-06-01T20:11:59.648Z,49.41
2023-06-01T20:14:33.467Z,49.49
2023-06-01T20:17:03.320Z,49.46
2023-06-01T20:19:31.718Z,50.08
2023-06-01T20:22:01.091Z,49.77
2023-06-01T20:24:35.125Z,50.02
2023-06-01T20:27:05.426Z,50.30
2023-06-01T20:29:38.665Z,50.69
2023-06-01T20:32:07.249Z,50.75
2023-06-01T20:34:35.451Z,50.91
2023-06-01T20:37:06.683Z,51.29
2023-06-01T20:39:34.804Z,50.81
2023-06-01T20:42:04.431Z,51.65
2023-06-01T20:44:34.716Z,52.55
2023-06-01T20:47:02.867Z,53.63
2023-06-01T20:49:31.077Z,53.67
2023-06-01T20:51:59.492Z,54.64
2023-06-01T20:54:31.562Z,53.98
2023-06-01T20:56:59.660Z,54.15
2023-06-01T20:59:31.148Z,55.05
2023-06-01T21:02:01.515Z,55.64
2023-06-01T21:04:32.632Z,56.51
2023-06-01T21:07:01.455Z,57.69
2023-06-01T21:09:29.397Z,57.88
2023-06-01T21:12:02.931Z,59.68
2023-06-01T21:14:32.298Z,59.89
2023-06-01T21:17:01.038Z,59.77
2023-06-01T21:19:29.818Z,59.48
2023-06-01T21:21:58.139Z,60.12
2023-06-01T21:24:26.179Z,59.50
2023-06-01T21:26:56.687Z,60.25
2023-06-01T21:29:24.822Z,59.99
2023-06-01T21:31:54.326Z,61.14
2023-06-01T21:34:22.477Z,60.07
2023-06-01T21:36:51.191Z,60.47
2023-06-01T21:39:19.356Z,60.58
2023-06-01T21:41:47.353Z,61.04
2023-06-01T21:44:17.109Z,61.09
2023-06-01T21:46:45.213Z,60.96
2023-06-01T21:49:13.199Z,61.25
2023-06-01T21:51:41.219Z,62.32
2023-06-01T21:54:09.447Z,60.98
2023-06-01T21:56:37.459Z,61.45
2023-06-01T21:59:06.146Z,59.97
2023-06-01T22:01:34.173Z,60.29
2023-06-01T22:04:02.341Z,60.46
2023-06-01T22:06:30.508Z,60.79
2023-06-01T22:08:58.451Z,61.40
2023-06-01T22:11:26.754Z,62.25
2023-06-01T22:13:54.724Z,62.07
2023-06-01T22:16:22.729Z,64.06
2023-06-01T22:18:50.770Z,63.29
2023-06-01T22:21:21.825Z,64.27
2023-06-01T22:23:49.920Z,65.40
2023-06-01T22:26:17.816Z,66.14
2023-06-01T22:28:45.929Z,67.80
2023-06-01T22:31:14.339Z,69.21
2023-06-01T22:33:42.272Z,69.51
2023-06-01T22:36:10.293Z,69.12
2023-06-01T22:38:42.440Z,68.82
2023-06-01T22:41:10.961Z,67.87
2023-06-01T22:43:41.747Z,68.33
2023-06-01T22:46:10.966Z,68.85
2023-06-01T22:48:39.221Z,68.54
2023-06-01T22:51:07.849Z,69.03
2023-06-01T22:53:36.338Z,69.59
2023-06-01T22:56:06.647Z,69.82
2023-06-01T22:58:34.982Z,69.29
2023-06-01T23:01:03.679Z,69.89
2023-06-01T23:03:31.817Z,69.30
2023-06-01T23:06:00.197Z,69.49
2023-06-01T23:08:28.167Z,69.33
2023-06-01T23:10:56.407Z,69.76
2023-06-01T23:13:26.140Z,69.32
2023-06-01T23:15:57.139Z,70.28
2023-06-01T23:18:26.944Z,70.42
2023-06-01T23:20:55.930Z,71.16
2023-06-01T23:23:24.133Z,70.44
2023-06-01T23:25:54.193Z,70.50
2023-06-01T23:28:22.120Z,71.50
2023-06-01T23:30:50.270Z,71.64
2023-06-01T23:33:18.185Z,71.09
2023-06-01T23:35:46.192Z,71.63
2023-06-01T23:38:14.176Z,72.13
2023-06-01T23:40:42.150Z,71.96
2023-06-01T23:43:10.157Z,71.66
2023-06-01T23:45:38.163Z,72.19
2023-06-01T23:48:07.367Z,71.90
2023-06-01T23:50:35.504Z,72.54
2023-06-01T23:53:03.551Z,72.89
2023-06-01T23:55:31.544Z,72.62
2023-06-01T23:57:59.557Z,71.39
